sensor_id;sensor_type;location;lat;lon;timestamp;pressure;altitude;pressure_sealevel;temperature;humidity
22862;BME280;11598;50.652;6.172;2023-04-30T00:02:28;97019.03;;;6.35;100.00
22862;BME280;11598;50.652;6.172;2023-04-30T00:12:28;97019.31;;;6.29;100.00
22862;BME280;11598;50.652;6.172;2023-04-30T00:22:28;97012.81;;;6.56;100.00
22862;BME280;11598;50.652;6.172;2023-04-30T00:32:29;97010.22;;;6.74;100.00
22862;BME280;11598;50.652;6.172;2023-04-30T00:42:29;97014.31;;;6.26;100.00
22862;BME280;11598;50.652;6.172;2023-04-30T00:52:30;97013.84;;;5.80;100.00
22862;BME280;11598;50.652;6.172;2023-04-30T01:02:30;97009.34;;;5.47;100.00
22862;BME280;11598;50.652;6.172;2023-04-30T01:23:08;97002.81;;;5.00;100.00
22862;BME280;11598;50.652;6.172;2023-04-30T01:33:11;96996.28;;;5.12;100.00
22862;BME280;11598;50.652;6.172;2023-04-30T01:53:32;96998.34;;;5.43;100.00
22862;BME280;11598;50.652;6.172;2023-04-30T02:03:36;97002.53;;;5.06;100.00
22862;BME280;11598;50.652;6.172;2023-04-30T02:13:36;97000.19;;;4.81;100.00
22862;BME280;11598;50.652;6.172;2023-04-30T02:23:37;97007.16;;;4.59;100.00
22862;BME280;11598;50.652;6.172;2023-04-30T02:33:37;97002.88;;;4.37;100.00
22862;BME280;11598;50.652;6.172;2023-04-30T02:43:37;97009.47;;;4.22;100.00
22862;BME280;11598;50.652;6.172;2023-04-30T02:53:38;96995.66;;;4.25;100.00
22862;BME280;11598;50.652;6.172;2023-04-30T03:03:38;96989.31;;;4.34;100.00
22862;BME280;11598;50.652;6.172;2023-04-30T03:13:39;96979.84;;;4.34;100.00
22862;BME280;11598;50.652;6.172;2023-04-30T03:23:40;96980.03;;;4.30;100.00
22862;BME280;11598;50.652;6.172;2023-04-30T03:33:40;96985.09;;;4.33;100.00
22862;BME280;11598;50.652;6.172;2023-04-30T03:43:40;96982.25;;;4.39;100.00
22862;BME280;11598;50.652;6.172;2023-04-30T03:53:41;96992.19;;;4.47;100.00
22862;BME280;11598;50.652;6.172;2023-04-30T04:03:41;96984.06;;;4.57;100.00
22862;BME280;11598;50.652;6.172;2023-04-30T04:13:42;96988.94;;;4.63;100.00
22862;BME280;11598;50.652;6.172;2023-04-30T04:23:42;96985.13;;;4.72;100.00
22862;BME280;11598;50.652;6.172;2023-04-30T04:33:43;96976.38;;;4.97;100.00
22862;BME280;11598;50.652;6.172;2023-04-30T04:43:43;96987.13;;;5.44;100.00
22862;BME280;11598;50.652;6.172;2023-04-30T04:53:44;96998.66;;;6.11;100.00
22862;BME280;11598;50.652;6.172;2023-04-30T05:03:44;96993.88;;;6.56;100.00
22862;BME280;11598;50.652;6.172;2023-04-30T05:13:45;96996.53;;;6.89;100.00
22862;BME280;11598;50.652;6.172;2023-04-30T05:23:46;97004.38;;;7.21;100.00
22862;BME280;11598;50.652;6.172;2023-04-30T05:33:46;97011.28;;;7.70;100.00
22862;BME280;11598;50.652;6.172;2023-04-30T05:43:46;97009.25;;;8.68;100.00
22862;BME280;11598;50.652;6.172;2023-04-30T05:53:47;97004.22;;;9.53;100.00
22862;BME280;11598;50.652;6.172;2023-04-30T06:03:47;97016.19;;;9.83;99.91
22862;BME280;11598;50.652;6.172;2023-04-30T06:13:48;97016.44;;;10.07;95.92
22862;BME280;11598;50.652;6.172;2023-04-30T06:23:48;97020.44;;;10.40;93.52
22862;BME280;11598;50.652;6.172;2023-04-30T06:33:48;97015.84;;;10.70;89.92
22862;BME280;11598;50.652;6.172;2023-04-30T06:43:49;97011.50;;;11.09;87.71
22862;BME280;11598;50.652;6.172;2023-04-30T06:53:50;97024.28;;;11.38;84.58
22862;BME280;11598;50.652;6.172;2023-04-30T07:03:51;97018.28;;;11.87;82.79
22862;BME280;11598;50.652;6.172;2023-04-30T07:13:53;97029.69;;;12.34;79.91
22862;BME280;11598;50.652;6.172;2023-04-30T07:23:53;97019.38;;;12.57;77.75
22862;BME280;11598;50.652;6.172;2023-04-30T07:33:54;97023.97;;;12.77;73.22
22862;BME280;11598;50.652;6.172;2023-04-30T07:43:55;97024.81;;;12.89;68.74
22862;BME280;11598;50.652;6.172;2023-04-30T07:53:55;97021.16;;;12.92;67.46
22862;BME280;11598;50.652;6.172;2023-04-30T08:03:55;97033.41;;;14.26;66.06
22862;BME280;11598;50.652;6.172;2023-04-30T08:13:56;97030.50;;;13.86;64.74
22862;BME280;11598;50.652;6.172;2023-04-30T08:23:56;97049.53;;;12.48;66.84
22862;BME280;11598;50.652;6.172;2023-04-30T08:33:56;97048.16;;;12.07;66.69
22862;BME280;11598;50.652;6.172;2023-04-30T08:44:00;97039.72;;;11.78;65.31
22862;BME280;11598;50.652;6.172;2023-04-30T08:54:01;97046.94;;;11.61;63.27
22862;BME280;11598;50.652;6.172;2023-04-30T09:04:06;97042.69;;;11.60;62.55
22862;BME280;11598;50.652;6.172;2023-04-30T09:14:07;97039.72;;;11.78;62.67
22862;BME280;11598;50.652;6.172;2023-04-30T09:24:07;97036.31;;;11.77;62.07
22862;BME280;11598;50.652;6.172;2023-04-30T09:34:08;97034.00;;;11.98;59.95
22862;BME280;11598;50.652;6.172;2023-04-30T09:44:26;97023.69;;;11.97;60.21
22862;BME280;11598;50.652;6.172;2023-04-30T09:54:28;97020.25;;;11.96;60.83
22862;BME280;11598;50.652;6.172;2023-04-30T10:04:35;97003.53;;;12.12;59.87
22862;BME280;11598;50.652;6.172;2023-04-30T10:14:36;97014.69;;;12.14;59.65
22862;BME280;11598;50.652;6.172;2023-04-30T10:24:37;97011.19;;;12.26;58.42
22862;BME280;11598;50.652;6.172;2023-04-30T10:44:49;96987.72;;;12.50;55.69
22862;BME280;11598;50.652;6.172;2023-04-30T10:54:50;96970.53;;;12.47;56.57
22862;BME280;11598;50.652;6.172;2023-04-30T11:15:14;96962.38;;;12.52;52.99
22862;BME280;11598;50.652;6.172;2023-04-30T11:25:18;96956.38;;;12.63;53.42
22862;BME280;11598;50.652;6.172;2023-04-30T11:35:19;96946.44;;;12.79;52.94
22862;BME280;11598;50.652;6.172;2023-04-30T11:45:19;96937.34;;;12.85;52.63
22862;BME280;11598;50.652;6.172;2023-04-30T11:55:24;96920.75;;;12.97;52.72
22862;BME280;11598;50.652;6.172;2023-04-30T12:05:25;96926.31;;;13.04;54.42
22862;BME280;11598;50.652;6.172;2023-04-30T12:15:27;96923.13;;;13.11;54.76
22862;BME280;11598;50.652;6.172;2023-04-30T12:25:28;96904.41;;;13.18;55.24
22862;BME280;11598;50.652;6.172;2023-04-30T12:35:29;96905.34;;;13.39;56.47
22862;BME280;11598;50.652;6.172;2023-04-30T12:45:48;96900.47;;;13.46;54.30
22862;BME280;11598;50.652;6.172;2023-04-30T12:56:13;96896.44;;;13.53;54.25
22862;BME280;11598;50.652;6.172;2023-04-30T13:06:15;96883.69;;;13.71;54.73
22862;BME280;11598;50.652;6.172;2023-04-30T13:16:15;96871.47;;;13.71;53.36
22862;BME280;11598;50.652;6.172;2023-04-30T13:26:16;96873.75;;;13.97;53.05
22862;BME280;11598;50.652;6.172;2023-04-30T13:36:16;96847.47;;;13.78;53.41
22862;BME280;11598;50.652;6.172;2023-04-30T13:46:17;96830.75;;;14.22;54.60
22862;BME280;11598;50.652;6.172;2023-04-30T13:56:17;96844.84;;;14.52;51.29
22862;BME280;11598;50.652;6.172;2023-04-30T14:06:18;96833.41;;;14.32;52.60
22862;BME280;11598;50.652;6.172;2023-04-30T14:16:18;96825.56;;;14.32;52.65
22862;BME280;11598;50.652;6.172;2023-04-30T14:26:20;96816.22;;;14.08;53.31
22862;BME280;11598;50.652;6.172;2023-04-30T14:36:20;96802.63;;;13.93;52.94
22862;BME280;11598;50.652;6.172;2023-04-30T14:46:21;96804.81;;;14.09;53.15
22862;BME280;11598;50.652;6.172;2023-04-30T14:56:22;96801.25;;;14.10;53.26
22862;BME280;11598;50.652;6.172;2023-04-30T15:06:23;96779.84;;;14.47;53.58
22862;BME280;11598;50.652;6.172;2023-04-30T15:16:23;96790.72;;;14.22;52.51
22862;BME280;11598;50.652;6.172;2023-04-30T15:26:24;96782.84;;;14.12;53.37
22862;BME280;11598;50.652;6.172;2023-04-30T15:36:25;96768.97;;;14.42;51.73
22862;BME280;11598;50.652;6.172;2023-04-30T15:46:25;96765.53;;;14.42;51.21
22862;BME280;11598;50.652;6.172;2023-04-30T15:56:26;96747.97;;;14.53;51.93
22862;BME280;11598;50.652;6.172;2023-04-30T16:06:27;96744.75;;;14.40;51.91
22862;BME280;11598;50.652;6.172;2023-04-30T16:16:29;96745.81;;;14.07;51.90
22862;BME280;11598;50.652;6.172;2023-04-30T16:26:29;96738.44;;;13.91;51.74
22862;BME280;11598;50.652;6.172;2023-04-30T16:36:29;96724.09;;;14.06;51.27
22862;BME280;11598;50.652;6.172;2023-04-30T16:46:30;96725.03;;;14.36;51.49
22862;BME280;11598;50.652;6.172;2023-04-30T16:56:30;96715.03;;;14.41;52.16
22862;BME280;11598;50.652;6.172;2023-04-30T17:06:31;96711.28;;;14.03;52.69
22862;BME280;11598;50.652;6.172;2023-04-30T17:16:32;96705.56;;;13.67;53.15
22862;BME280;11598;50.652;6.172;2023-04-30T17:26:32;96694.09;;;13.59;52.99
22862;BME280;11598;50.652;6.172;2023-04-30T17:36:33;96695.00;;;13.48;53.70
22862;BME280;11598;50.652;6.172;2023-04-30T17:46:33;96700.63;;;13.32;54.71
22862;BME280;11598;50.652;6.172;2023-04-30T17:56:34;96692.38;;;13.16;56.57
22862;BME280;11598;50.652;6.172;2023-04-30T18:06:35;96688.50;;;12.99;57.97
22862;BME280;11598;50.652;6.172;2023-04-30T18:16:35;96689.03;;;12.81;59.09
22862;BME280;11598;50.652;6.172;2023-04-30T18:26:36;96692.03;;;12.65;60.27
22862;BME280;11598;50.652;6.172;2023-04-30T18:36:36;96678.91;;;12.44;61.47
22862;BME280;11598;50.652;6.172;2023-04-30T18:46:37;96675.03;;;12.27;62.53
22862;BME280;11598;50.652;6.172;2023-04-30T18:56:37;96679.75;;;12.11;63.32
22862;BME280;11598;50.652;6.172;2023-04-30T19:06:38;96682.22;;;11.90;64.37
22862;BME280;11598;50.652;6.172;2023-04-30T19:16:38;96685.56;;;11.68;65.42
22862;BME280;11598;50.652;6.172;2023-04-30T19:26:39;96695.47;;;11.52;66.61
22862;BME280;11598;50.652;6.172;2023-04-30T19:36:41;96696.63;;;11.36;67.68
22862;BME280;11598;50.652;6.172;2023-04-30T19:46:43;96707.31;;;11.20;68.51
22862;BME280;11598;50.652;6.172;2023-04-30T19:56:43;96705.81;;;11.05;69.16
22862;BME280;11598;50.652;6.172;2023-04-30T20:06:45;96706.22;;;10.88;69.86
22862;BME280;11598;50.652;6.172;2023-04-30T20:16:46;96698.34;;;10.76;70.49
22862;BME280;11598;50.652;6.172;2023-04-30T20:26:52;96697.78;;;10.60;71.24
22862;BME280;11598;50.652;6.172;2023-04-30T20:36:53;96684.94;;;10.46;71.98
22862;BME280;11598;50.652;6.172;2023-04-30T20:46:54;96693.97;;;10.27;72.81
22862;BME280;11598;50.652;6.172;2023-04-30T20:56:54;96689.53;;;10.04;74.21
22862;BME280;11598;50.652;6.172;2023-04-30T21:06:54;96687.47;;;9.83;74.80
22862;BME280;11598;50.652;6.172;2023-04-30T21:16:55;96678.94;;;9.56;76.08
22862;BME280;11598;50.652;6.172;2023-04-30T21:26:56;96667.06;;;9.26;77.74
22862;BME280;11598;50.652;6.172;2023-04-30T21:36:57;96657.06;;;8.94;79.42
22862;BME280;11598;50.652;6.172;2023-04-30T21:46:58;96653.13;;;8.74;80.89
22862;BME280;11598;50.652;6.172;2023-04-30T21:56:59;96649.13;;;8.56;82.07
22862;BME280;11598;50.652;6.172;2023-04-30T22:07:00;96626.97;;;8.37;83.28
22862;BME280;11598;50.652;6.172;2023-04-30T22:17:00;96626.16;;;8.22;84.44
22862;BME280;11598;50.652;6.172;2023-04-30T22:27:01;96621.72;;;8.24;85.34
22862;BME280;11598;50.652;6.172;2023-04-30T22:37:02;96615.53;;;8.27;85.91
22862;BME280;11598;50.652;6.172;2023-04-30T22:47:03;96613.28;;;8.35;85.94
22862;BME280;11598;50.652;6.172;2023-04-30T22:57:05;96608.59;;;8.42;86.25
22862;BME280;11598;50.652;6.172;2023-04-30T23:07:05;96599.69;;;8.46;86.45
22862;BME280;11598;50.652;6.172;2023-04-30T23:17:06;96595.69;;;8.55;86.64
22862;BME280;11598;50.652;6.172;2023-04-30T23:27:06;96593.53;;;8.61;86.55
22862;BME280;11598;50.652;6.172;2023-04-30T23:37:07;96585.19;;;8.71;86.69
22862;BME280;11598;50.652;6.172;2023-04-30T23:47:07;96589.84;;;8.78;86.15
22862;BME280;11598;50.652;6.172;2023-04-30T23:57:08;96575.66;;;8.84;85.63
